21 a 30/6 - Vórtices y vaguadas, frío. Nieve N Patagonia y Cordillera completa (posible aislada C), tormentas NEA

ArgenMet
Mensajes: 67
Registrado: Mar Jun 21, 2022 11:20 am
Ubicación: Dado de baja,foro hostil con los usuarios nuevos

Re: 21 a 30/6 - Baja segregada, frío. Nieve N Patagonia y Cordillera completa (posible aislada C), tormentas NEA

Mensaje por ArgenMet »

Foro hostil con los usuarios nuevos
Avatar de Usuario
Diecha
Mensajes: 20023
Registrado: Jue Ago 25, 2011 9:31 pm
Ubicación: Lomas de Zamora

Re: 21 a 30/6 - Baja segregada, frío. Nieve N Patagonia y Cordillera completa (posible aislada C), tormentas NEA

Mensaje por Diecha »

- San Fernando 19 hs: SADF 262200Z 06007KT CAVOK 09/04 Q1022
- Aeroparque 19 hs: SABE 262200Z 07008KT 9999 FEW023 OVC080 10/04 Q1023
- Ezeiza 19 hs: SAEZ 262200Z 08006KT CAVOK 09/04 Q1022

Imagen
Imagen
Última edición por Diecha el Dom Jun 26, 2022 8:37 pm, editado 1 vez en total.
Avatar de Usuario
stormchaserAlberto
Mensajes: 9212
Registrado: Jue Feb 20, 2014 2:34 am
Ubicación: Río Tercero,Córdoba.

Re: 21 a 30/6 - Baja segregada, frío. Nieve N Patagonia y Cordillera completa (posible aislada C), tormentas NEA

Mensaje por stormchaserAlberto »

Paso Agua Negra, San Juan
Imagen
Deberíamos de dejar de decirle aguanieve a cualquier llovizna :mrgreen:
ArgenMet
Mensajes: 67
Registrado: Mar Jun 21, 2022 11:20 am
Ubicación: Dado de baja,foro hostil con los usuarios nuevos

Re: 21 a 30/6 - Baja segregada, frío. Nieve N Patagonia y Cordillera completa (posible aislada C), tormentas NEA

Mensaje por ArgenMet »

Veo unos chaparrones en el radar,pueden llegar a cortar la racha
Imagen
Foro hostil con los usuarios nuevos
Avatar de Usuario
Diecha
Mensajes: 20023
Registrado: Jue Ago 25, 2011 9:31 pm
Ubicación: Lomas de Zamora

Re: 21 a 30/6 - Baja segregada, frío. Nieve N Patagonia y Cordillera completa (posible aislada C), tormentas NEA

Mensaje por Diecha »

- San Fernando 20 hs: SADF 262300Z 05006KT CAVOK 09/04 Q1022
- Aeroparque 20 hs: SABE 262300Z 07009KT 050V110 9999 FEW023 OVC080 10/05 Q1023
- Ezeiza 20 hs: SAEZ 262300Z 08007KT CAVOK 09/04 Q1022

Imagen
Imagen
Avatar de Usuario
Ale de Castelar
Mensajes: 32300
Registrado: Sab Mar 03, 2012 12:25 pm
Ubicación: Caballito

Re: 21 a 30/6 - Baja segregada, frío. Nieve N Patagonia y Cordillera completa (posible aislada C), tormentas NEA

Mensaje por Ale de Castelar »

Llueve en La Plata
Stormy
Mensajes: 2189
Registrado: Vie Abr 07, 2017 5:19 pm
Ubicación: La Plata

Re: 21 a 30/6 - Baja segregada, frío. Nieve N Patagonia y Cordillera completa (posible aislada C), tormentas NEA

Mensaje por Stormy »

Ale de Castelar escribió: Dom Jun 26, 2022 8:45 pm Llueve en La Plata
Sí, cayó una mínima garúa durante alrededor de 1 hora, las primeras gotas desde el 25 de mayo!
mateix escribió:pamperos que hacen disparar la T...
Marcelo escribió:Esa térmica es más trucha que cola de tornado.
Avatar de Usuario
Ernest
Mensajes: 15842
Registrado: Vie Jul 17, 2009 10:54 pm
Ubicación: Balvanera, CABA

Re: 21 a 30/6 - Baja segregada, frío. Nieve N Patagonia y Cordillera completa (posible aislada C), tormentas NEA

Mensaje por Ernest »

Ahora se levantó algo de viento y se siente bastante fría la noche por Once.
18 hs: T 9,4 / Td 3,5 / HR 66 %
21 hs: T 9,5 / Td 3,8 / HR 68 %
Did you want to talk about the weather, or were you just making chitchat?

Twitter: @ErnestoAtmoII
Stormy
Mensajes: 2189
Registrado: Vie Abr 07, 2017 5:19 pm
Ubicación: La Plata

Re: 21 a 30/6 - Baja segregada, frío. Nieve N Patagonia y Cordillera completa (posible aislada C), tormentas NEA

Mensaje por Stormy »

Máxima de 9.2º en Gualeguaychú y de 9º en Villa de María, Cba. El aero de LP también tuvo sub10 (9.7º), a diferencia de en la ciudad propiamente dicha.
mateix escribió:pamperos que hacen disparar la T...
Marcelo escribió:Esa térmica es más trucha que cola de tornado.
Avatar de Usuario
Maximus Rosario
Mensajes: 2288
Registrado: Jue Sep 20, 2018 8:54 pm
Ubicación: Rosario

Re: 21 a 30/6 - Baja segregada, frío. Nieve N Patagonia y Cordillera completa (posible aislada C), tormentas NEA

Mensaje por Maximus Rosario »

10,3 la máxima en el aero y 10,0 en la ema.
Día bastante oscuro con altoestratos que amagaban con tirar alguna gota, pero no pasó. Veremos si lo hacen esta noche.
Nena, vi un rayo... vuelvo en unas horas...

EMA Villa Gdor. Gálvez
EMA Villa Gdor. Gálvez Cooperativa
Flickr